Time;durP1;ratioP1;P1;durP2;ratioP2;P2;SDS_P1;SDS_P2;PMS_P1;PMS_P2;Temp;Humidity;BMP_temperature;BMP_pressure;BME280_temperature;BME280_humidity;BME280_pressure;Samples;Min_cycle;Max_cycle;Signal;HPM_P1;HPM_P2
2022/10/01 00:02:18;;;;;;;5.63;4.70;;;22.00;63.50;;;;;;4935581;29;20454;-68
2022/10/01 00:04:47;;;;;;;5.10;4.80;;;22.00;63.60;;;;;;4946587;29;20492;-69
2022/10/01 00:07:15;;;;;;;4.93;4.50;;;22.00;63.50;;;;;;4949738;29;20886;-68
2022/10/01 00:09:43;;;;;;;5.50;5.00;;;22.00;63.50;;;;;;4943538;29;20462;-68
2022/10/01 00:12:14;;;;;;;5.10;4.70;;;22.00;63.50;;;;;;4934869;29;20447;-67
2022/10/01 00:14:43;;;;;;;7.10;6.50;;;22.00;63.50;;;;;;4935335;29;20916;-67
2022/10/01 00:17:12;;;;;;;4.73;4.43;;;22.00;63.40;;;;;;4935171;29;20529;-67
2022/10/01 00:19:41;;;;;;;5.50;5.10;;;22.00;63.40;;;;;;4934827;29;20475;-68
2022/10/01 00:22:09;;;;;;;5.60;4.73;;;22.00;63.40;;;;;;4934824;29;20454;-68
2022/10/01 00:24:37;;;;;;;4.80;4.40;;;22.00;63.40;;;;;;4934657;29;20443;-68
2022/10/01 00:27:05;;;;;;;5.47;5.13;;;22.00;63.40;;;;;;4938416;29;20481;-68
2022/10/01 00:29:34;;;;;;;5.13;4.73;;;22.00;63.40;;;;;;4951190;28;20918;-68
2022/10/01 00:32:02;;;;;;;4.87;4.50;;;22.00;63.40;;;;;;4953139;29;20936;-68
2022/10/01 00:34:30;;;;;;;4.60;4.30;;;22.00;63.40;;;;;;4952877;28;20463;-68
2022/10/01 00:37:00;;;;;;;5.07;4.57;;;22.00;63.40;;;;;;4936257;28;20498;-69
2022/10/01 00:39:28;;;;;;;5.17;4.70;;;22.00;63.40;;;;;;4934800;29;20430;-68
2022/10/01 00:41:56;;;;;;;5.50;5.07;;;22.00;63.40;;;;;;4952911;29;20771;-69
2022/10/01 00:44:32;;;;;;;5.40;5.00;;;22.00;63.40;;;;;;4953461;29;20447;-68
2022/10/01 00:47:05;;;;;;;5.50;5.00;;;22.00;63.40;;;;;;4954433;28;20489;-68
2022/10/01 00:49:36;;;;;;;4.50;4.20;;;22.00;63.50;;;;;;4941449;28;20921;-67
2022/10/01 00:52:10;;;;;;;5.10;4.70;;;22.00;63.50;;;;;;4936434;29;20564;-68
2022/10/01 00:54:43;;;;;;;5.70;5.20;;;21.90;63.50;;;;;;4941183;29;20463;-68
2022/10/01 00:57:14;;;;;;;4.50;4.20;;;22.00;63.40;;;;;;4946367;29;20479;-68
2022/10/01 00:59:42;;;;;;;5.13;4.73;;;21.90;63.50;;;;;;4938218;28;20442;-68
2022/10/01 01:02:10;;;;;;;5.47;5.07;;;22.00;63.50;;;;;;4949929;29;20465;-68
2022/10/01 01:04:39;;;;;;;5.77;5.27;;;22.00;63.50;;;;;;4953206;28;20566;-68
2022/10/01 01:07:09;;;;;;;4.97;4.57;;;22.00;63.50;;;;;;4951030;28;20460;-68
2022/10/01 01:09:42;;;;;;;5.53;5.03;;;21.90;63.50;;;;;;4952082;28;20434;-68
2022/10/01 01:12:20;;;;;;;5.93;5.43;;;21.90;63.50;;;;;;4947988;28;20447;-68
2022/10/01 01:14:59;;;;;;;5.50;5.10;;;22.00;63.40;;;;;;4952482;29;20451;-69
2022/10/01 01:17:33;;;;;;;5.40;4.90;;;22.00;63.50;;;;;;4957203;28;20476;-69
2022/10/01 01:20:23;;;;;;;5.13;4.77;;;21.90;63.40;;;;;;4956740;28;20477;-68
2022/10/01 01:23:04;;;;;;;5.17;4.77;;;21.90;63.40;;;;;;4957326;28;20455;-68
2022/10/01 01:25:40;;;;;;;6.57;6.07;;;21.90;63.40;;;;;;4955986;28;20507;-68
2022/10/01 01:28:19;;;;;;;5.30;4.90;;;21.90;63.40;;;;;;4956823;28;20878;-68
2022/10/01 01:30:50;;;;;;;5.50;5.10;;;21.90;63.40;;;;;;4957044;28;20774;-68
2022/10/01 01:33:22;;;;;;;7.33;6.73;;;21.90;63.40;;;;;;4951079;28;20448;-68
2022/10/01 01:35:52;;;;;;;5.40;4.90;;;21.90;63.40;;;;;;4937834;29;20449;-67
2022/10/01 01:38:26;;;;;;;5.87;5.33;;;21.90;63.40;;;;;;4955918;28;21000;-68
2022/10/01 01:40:58;;;;;;;5.20;4.80;;;21.90;63.40;;;;;;4956368;28;20808;-68
2022/10/01 01:43:31;;;;;;;5.10;4.70;;;21.90;63.30;;;;;;4956872;28;20446;-68
2022/10/01 01:46:02;;;;;;;5.30;4.83;;;21.90;63.40;;;;;;4956814;28;20468;-69
2022/10/01 01:48:31;;;;;;;5.43;5.00;;;21.90;63.30;;;;;;4939570;28;20455;-68
2022/10/01 01:51:11;;;;;;;6.27;5.67;;;21.90;63.30;;;;;;4938131;29;20446;-68
2022/10/01 01:53:41;;;;;;;5.53;5.03;;;21.90;63.30;;;;;;4954065;29;20457;-70
2022/10/01 01:56:10;;;;;;;5.27;4.77;;;21.90;63.30;;;;;;4946930;28;20444;-68
2022/10/01 01:58:39;;;;;;;5.97;5.47;;;21.90;63.30;;;;;;4955035;28;20473;-68
2022/10/01 02:01:08;;;;;;;5.50;5.10;;;21.80;63.20;;;;;;4947781;28;20462;-68
2022/10/01 02:03:36;;;;;;;5.60;5.10;;;21.80;63.30;;;;;;4953755;29;20536;-69
2022/10/01 02:06:16;;;;;;;4.80;4.40;;;21.80;63.30;;;;;;4955599;28;20455;-68
2022/10/01 02:08:51;;;;;;;5.17;4.70;;;21.80;63.30;;;;;;4953107;28;20909;-68
2022/10/01 02:11:25;;;;;;;4.70;4.40;;;21.80;63.30;;;;;;4955165;28;20449;-69
2022/10/01 02:14:13;;;;;;;4.73;4.43;;;21.80;63.20;;;;;;4955450;28;20554;-69
2022/10/01 02:16:48;;;;;;;5.20;4.77;;;21.80;63.30;;;;;;4955607;28;20456;-68
2022/10/01 02:19:23;;;;;;;5.90;5.33;;;21.80;63.30;;;;;;4955686;28;20498;-68
2022/10/01 02:21:59;;;;;;;5.90;5.40;;;21.80;63.30;;;;;;4956017;28;20456;-68
2022/10/01 02:24:36;;;;;;;5.10;4.70;;;21.80;63.30;;;;;;4955552;28;20449;-68
2022/10/01 02:27:11;;;;;;;4.70;4.33;;;21.80;63.30;;;;;;4955821;28;20454;-68
2022/10/01 02:29:43;;;;;;;4.90;4.50;;;21.80;63.30;;;;;;4950510;28;20447;-68
2022/10/01 02:32:13;;;;;;;4.90;4.60;;;21.80;63.20;;;;;;4944222;28;20456;-68
2022/10/01 02:34:44;;;;;;;5.70;5.20;;;21.80;63.20;;;;;;4956251;28;20439;-68
2022/10/01 02:37:13;;;;;;;4.67;4.33;;;21.80;63.20;;;;;;4955653;28;20442;-68
2022/10/01 02:39:42;;;;;;;5.20;4.40;;;21.80;63.20;;;;;;4955831;29;20484;-68
2022/10/01 02:42:14;;;;;;;4.83;4.53;;;21.80;63.20;;;;;;4955689;28;20440;-68
2022/10/01 02:44:45;;;;;;;4.40;4.10;;;21.80;63.20;;;;;;4948272;28;20466;-68
2022/10/01 02:47:20;;;;;;;4.53;4.13;;;21.80;63.30;;;;;;4952531;29;20450;-68
2022/10/01 02:49:49;;;;;;;4.90;4.50;;;21.80;63.20;;;;;;4955845;28;20938;-68
2022/10/01 02:52:25;;;;;;;4.77;4.37;;;21.80;63.20;;;;;;4955668;28;20785;-69
2022/10/01 02:54:57;;;;;;;4.50;4.10;;;21.80;63.20;;;;;;4952054;28;20471;-68
2022/10/01 02:57:29;;;;;;;4.90;4.50;;;21.80;63.20;;;;;;4949260;28;20469;-68
2022/10/01 03:00:00;;;;;;;4.53;4.13;;;21.80;63.20;;;;;;4946130;29;20471;-69
2022/10/01 03:02:30;;;;;;;5.30;4.73;;;21.80;63.20;;;;;;4954692;29;20455;-68
2022/10/01 03:04:59;;;;;;;4.80;4.30;;;21.80;63.20;;;;;;4955238;28;20421;-67
2022/10/01 03:07:30;;;;;;;4.43;4.03;;;21.80;63.20;;;;;;4955438;29;20444;-68
2022/10/01 03:09:58;;;;;;;4.80;4.40;;;21.80;63.20;;;;;;4950259;29;20464;-68
2022/10/01 03:12:26;;;;;;;4.37;4.07;;;21.80;63.20;;;;;;4935646;29;20449;-68
2022/10/01 03:14:54;;;;;;;4.20;3.90;;;21.80;63.20;;;;;;4934964;29;20458;-68
2022/10/01 03:17:24;;;;;;;4.20;3.80;;;21.70;63.20;;;;;;4939603;29;20462;-68
2022/10/01 03:19:52;;;;;;;4.63;4.23;;;21.70;63.20;;;;;;4944198;29;20574;-69
2022/10/01 03:22:22;;;;;;;4.60;4.20;;;21.70;63.20;;;;;;4955115;28;20449;-68
2022/10/01 03:24:51;;;;;;;4.00;3.70;;;21.70;63.20;;;;;;4954300;28;20433;-68
2022/10/01 03:27:19;;;;;;;4.27;3.90;;;21.70;63.20;;;;;;4954327;28;20893;-68
2022/10/01 03:29:48;;;;;;;4.07;3.77;;;21.70;63.20;;;;;;4953527;28;20461;-68
2022/10/01 03:32:16;;;;;;;4.47;4.07;;;21.70;63.20;;;;;;4935522;28;20788;-68
2022/10/01 03:34:46;;;;;;;3.40;3.20;;;21.70;63.20;;;;;;4935698;29;20453;-67
2022/10/01 03:37:14;;;;;;;4.40;4.10;;;21.70;63.20;;;;;;4936091;29;20448;-68
2022/10/01 03:39:42;;;;;;;3.90;3.60;;;21.70;63.20;;;;;;4935234;29;21034;-67
2022/10/01 03:42:10;;;;;;;3.83;3.63;;;21.70;63.20;;;;;;4935432;29;20473;-72
2022/10/01 03:44:38;;;;;;;3.70;3.40;;;21.70;63.20;;;;;;4935406;29;20446;-69
2022/10/01 03:47:06;;;;;;;3.43;3.23;;;21.70;63.20;;;;;;4952799;29;20448;-67
2022/10/01 03:49:34;;;;;;;4.30;3.90;;;21.70;63.20;;;;;;4955184;28;20426;-68
2022/10/01 03:52:05;;;;;;;3.63;3.43;;;21.70;63.20;;;;;;4954249;28;20473;-68
2022/10/01 03:54:33;;;;;;;3.43;3.13;;;21.70;63.20;;;;;;4954152;28;20438;-68
2022/10/01 03:57:01;;;;;;;3.17;2.97;;;21.70;63.20;;;;;;4949970;28;20471;-68
2022/10/01 03:59:32;;;;;;;3.67;3.37;;;21.70;63.20;;;;;;4949467;29;20540;-68
2022/10/01 04:02:00;;;;;;;3.90;3.47;;;21.70;63.20;;;;;;4949545;28;20942;-67
2022/10/01 04:04:28;;;;;;;3.87;3.57;;;21.70;63.20;;;;;;4935310;28;20577;-69
2022/10/01 04:06:56;;;;;;;3.83;3.53;;;21.70;63.20;;;;;;4937118;29;20443;-68
2022/10/01 04:09:26;;;;;;;3.73;3.43;;;21.70;63.20;;;;;;4935658;28;20451;-68
2022/10/01 04:11:54;;;;;;;3.30;3.00;;;21.70;63.20;;;;;;4944728;29;20479;-68
2022/10/01 04:14:22;;;;;;;3.50;3.20;;;21.70;63.20;;;;;;4954107;28;20782;-68
2022/10/01 04:16:51;;;;;;;3.50;3.30;;;21.70;63.20;;;;;;4949137;28;20522;-68
2022/10/01 04:19:20;;;;;;;3.63;3.33;;;21.70;63.10;;;;;;4952800;28;20489;-68
2022/10/01 04:21:48;;;;;;;3.23;3.03;;;21.70;63.10;;;;;;4954001;28;20435;-69
2022/10/01 04:24:16;;;;;;;3.37;3.17;;;21.70;63.10;;;;;;4943603;28;20446;-67
2022/10/01 04:26:45;;;;;;;3.53;3.30;;;21.70;63.10;;;;;;4934331;29;20451;-67
2022/10/01 04:29:13;;;;;;;3.83;3.10;;;21.70;63.10;;;;;;4947440;29;20457;-67
2022/10/01 04:31:42;;;;;;;3.27;3.07;;;21.70;63.10;;;;;;4950655;28;20463;-68
2022/10/01 04:34:10;;;;;;;3.73;3.47;;;21.70;63.10;;;;;;4951697;29;20468;-68
2022/10/01 04:36:38;;;;;;;3.40;3.20;;;21.70;63.20;;;;;;4951414;28;20793;-68
2022/10/01 04:39:07;;;;;;;4.00;3.10;;;21.70;63.30;;;;;;4952376;28;20478;-68
2022/10/01 04:41:35;;;;;;;3.63;3.40;;;21.70;63.30;;;;;;4956170;28;20495;-67
2022/10/01 04:44:05;;;;;;;3.53;3.23;;;21.70;63.20;;;;;;4954448;28;20445;-67
2022/10/01 04:46:33;;;;;;;3.33;3.03;;;21.70;63.30;;;;;;4956908;28;20473;-66
2022/10/01 04:49:02;;;;;;;3.60;3.30;;;21.70;63.30;;;;;;4956652;28;20471;-67
2022/10/01 04:51:30;;;;;;;2.77;2.57;;;21.70;63.20;;;;;;4948787;28;20451;-67
2022/10/01 04:53:58;;;;;;;3.33;3.03;;;21.70;63.20;;;;;;4956558;28;20476;-67
2022/10/01 04:56:26;;;;;;;3.30;2.90;;;21.70;63.30;;;;;;4942580;28;20479;-67
2022/10/01 04:58:54;;;;;;;3.23;2.97;;;21.70;63.30;;;;;;4950460;29;20464;-66
2022/10/01 05:01:24;;;;;;;2.73;2.53;;;21.70;63.40;;;;;;4951104;29;20449;-67
2022/10/01 05:03:52;;;;;;;3.20;2.93;;;21.70;63.40;;;;;;4949941;29;21027;-66
2022/10/01 05:06:20;;;;;;;3.27;2.80;;;21.70;63.40;;;;;;4938514;29;20980;-67
2022/10/01 05:08:48;;;;;;;3.20;3.00;;;21.70;63.30;;;;;;4944719;29;20445;-67
2022/10/01 05:11:16;;;;;;;3.13;2.93;;;21.70;63.40;;;;;;4955642;28;20940;-67
2022/10/01 05:13:45;;;;;;;2.73;2.63;;;21.70;63.30;;;;;;4955501;28;20463;-66
2022/10/01 05:16:13;;;;;;;3.60;3.30;;;21.70;63.30;;;;;;4955892;28;20876;-66
2022/10/01 05:18:43;;;;;;;3.40;3.20;;;21.70;63.30;;;;;;4951196;29;20964;-66
2022/10/01 05:21:14;;;;;;;3.30;3.00;;;21.60;63.50;;;;;;4949896;29;20483;-67
2022/10/01 05:23:42;;;;;;;3.23;2.93;;;21.60;63.40;;;;;;4937362;29;20422;-67
2022/10/01 05:26:10;;;;;;;3.03;2.80;;;21.60;63.50;;;;;;4938067;29;20455;-66
2022/10/01 05:28:43;;;;;;;3.40;2.67;;;21.70;63.50;;;;;;4957261;29;20453;-67
2022/10/01 05:31:12;;;;;;;3.00;2.80;;;21.60;63.50;;;;;;4944322;28;20478;-67
2022/10/01 05:33:42;;;;;;;2.87;2.67;;;21.60;63.40;;;;;;4942163;28;20792;-67
2022/10/01 05:36:10;;;;;;;3.20;2.77;;;21.60;63.40;;;;;;4944721;29;21314;-67
2022/10/01 05:38:38;;;;;;;2.80;2.70;;;21.60;63.40;;;;;;4937590;29;20443;-67
2022/10/01 05:41:09;;;;;;;3.17;2.90;;;21.60;63.40;;;;;;4952382;29;20475;-67
2022/10/01 05:43:37;;;;;;;3.37;2.90;;;21.60;63.50;;;;;;4956739;28;21115;-67
2022/10/01 05:46:06;;;;;;;4.30;2.90;;;21.60;63.40;;;;;;4954838;29;20446;-67
2022/10/01 05:48:36;;;;;;;4.60;3.07;;;21.60;63.40;;;;;;4951481;29;20449;-68
2022/10/01 05:51:07;;;;;;;5.37;3.27;;;21.60;63.40;;;;;;4946626;29;20454;-67
2022/10/01 05:53:36;;;;;;;3.73;3.00;;;21.60;63.40;;;;;;4953772;28;20459;-67
2022/10/01 05:56:05;;;;;;;2.80;2.60;;;21.60;63.40;;;;;;4955429;29;20467;-67
2022/10/01 05:58:34;;;;;;;3.57;3.27;;;21.60;63.40;;;;;;4953425;29;20449;-66
2022/10/01 06:01:02;;;;;;;3.43;3.00;;;21.60;63.40;;;;;;4952952;28;20572;-68
2022/10/01 06:03:31;;;;;;;6.50;2.50;;;21.60;63.40;;;;;;4954188;28;20492;-68
2022/10/01 06:05:59;;;;;;;3.03;2.83;;;21.60;63.40;;;;;;4953213;29;20737;-70
2022/10/01 06:08:29;;;;;;;2.70;2.50;;;21.60;63.40;;;;;;4950842;28;20483;-68
2022/10/01 06:11:00;;;;;;;2.77;2.57;;;21.60;63.30;;;;;;4948761;29;20469;-68
2022/10/01 06:13:28;;;;;;;2.83;2.53;;;21.60;63.30;;;;;;4950717;29;20448;-68
2022/10/01 06:15:57;;;;;;;3.00;2.80;;;21.60;63.40;;;;;;4955309;28;20458;-70
2022/10/01 06:18:26;;;;;;;3.77;2.63;;;21.60;63.30;;;;;;4948617;28;20487;-68
2022/10/01 06:20:54;;;;;;;2.70;2.50;;;21.60;63.40;;;;;;4953637;29;20835;-68
2022/10/01 06:23:22;;;;;;;2.87;2.63;;;21.60;63.40;;;;;;4954038;29;20782;-68
2022/10/01 06:25:52;;;;;;;4.27;2.77;;;21.60;63.40;;;;;;4953595;28;20500;-68
2022/10/01 06:28:20;;;;;;;3.43;2.63;;;21.60;63.40;;;;;;4953318;28;20815;-68
2022/10/01 06:30:49;;;;;;;2.60;2.40;;;21.60;63.40;;;;;;4951797;28;20773;-68
2022/10/01 06:33:18;;;;;;;3.43;2.73;;;21.60;63.60;;;;;;4946100;29;20463;-68
2022/10/01 06:35:48;;;;;;;3.07;2.87;;;21.60;63.10;;;;;;4949466;28;20465;-68
2022/10/01 06:38:18;;;;;;;2.80;2.60;;;21.60;63.40;;;;;;4951329;28;20456;-68
2022/10/01 06:40:53;;;;;;;3.90;3.13;;;21.60;63.60;;;;;;4951104;29;20831;-68
2022/10/01 06:43:21;;;;;;;2.87;2.67;;;21.60;63.70;;;;;;4951328;28;20447;-69
2022/10/01 06:45:49;;;;;;;7.30;2.37;;;21.60;63.70;;;;;;4953045;29;20456;-70
2022/10/01 06:48:19;;;;;;;4.20;3.90;;;21.60;63.70;;;;;;4950080;29;20511;-68
2022/10/01 06:50:50;;;;;;;2.90;2.70;;;21.60;63.60;;;;;;4947967;28;20452;-68
2022/10/01 06:53:19;;;;;;;2.90;2.70;;;21.60;63.50;;;;;;4944420;28;20488;-68
2022/10/01 06:55:48;;;;;;;3.43;3.23;;;21.60;63.70;;;;;;4942116;29;20450;-69
2022/10/01 06:58:20;;;;;;;3.30;2.70;;;21.50;63.90;;;;;;4947389;28;20465;-68
2022/10/01 07:00:50;;;;;;;3.63;3.30;;;21.50;64.00;;;;;;4948321;29;20511;-67
2022/10/01 07:03:20;;;;;;;3.77;3.37;;;21.50;64.50;;;;;;4942736;28;20493;-67
2022/10/01 07:05:50;;;;;;;6.97;4.30;;;21.50;64.40;;;;;;4944558;29;20454;-67
2022/10/01 07:08:18;;;;;;;3.50;2.87;;;21.50;64.20;;;;;;4948866;28;20457;-67
2022/10/01 07:10:46;;;;;;;4.37;4.00;;;21.50;64.30;;;;;;4948188;29;20457;-69
2022/10/01 07:13:16;;;;;;;3.77;3.50;;;21.50;64.20;;;;;;4947796;28;20458;-68
2022/10/01 07:15:46;;;;;;;8.93;5.77;;;21.50;64.10;;;;;;4945263;29;20467;-67
2022/10/01 07:18:15;;;;;;;11.07;5.87;;;21.50;65.30;;;;;;4951274;28;20476;-68
2022/10/01 07:20:43;;;;;;;5.77;4.57;;;21.60;66.10;;;;;;4947708;29;20476;-66
2022/10/01 07:23:13;;;;;;;8.50;3.97;;;21.60;66.50;;;;;;4952001;28;20450;-67
2022/10/01 07:25:42;;;;;;;7.10;3.80;;;21.50;66.70;;;;;;4947080;28;20455;-67
2022/10/01 07:28:16;;;;;;;9.13;3.60;;;21.50;66.80;;;;;;4950516;28;20454;-68
2022/10/01 07:31:01;;;;;;;9.40;4.93;;;21.50;66.80;;;;;;4953782;28;20452;-67
2022/10/01 07:33:29;;;;;;;12.00;4.70;;;21.60;66.70;;;;;;4950387;28;20770;-67
2022/10/01 07:36:01;;;;;;;5.40;3.50;;;21.60;67.00;;;;;;4962866;28;20457;-67
2022/10/01 07:38:29;;;;;;;4.77;4.00;;;21.60;67.10;;;;;;4945391;29;20458;-69
2022/10/01 07:40:57;;;;;;;6.70;3.63;;;21.60;67.20;;;;;;4953009;29;20475;-68
2022/10/01 07:43:26;;;;;;;9.00;4.00;;;21.60;67.30;;;;;;4940338;28;20445;-67
2022/10/01 07:45:56;;;;;;;5.60;3.47;;;21.60;66.90;;;;;;4945938;29;20456;-68
2022/10/01 07:48:25;;;;;;;9.93;4.23;;;21.60;66.80;;;;;;4951539;28;20780;-67
2022/10/01 07:50:53;;;;;;;7.50;3.93;;;21.60;66.70;;;;;;4951443;28;20775;-68
2022/10/01 07:53:24;;;;;;;10.20;4.63;;;21.60;66.70;;;;;;4949939;29;20444;-67
2022/10/01 07:55:52;;;;;;;9.73;4.40;;;21.60;66.40;;;;;;4950429;29;20464;-68
2022/10/01 07:58:22;;;;;;;13.20;5.20;;;21.60;66.50;;;;;;4946680;28;20465;-66
2022/10/01 08:00:54;;;;;;;6.90;3.90;;;21.60;66.20;;;;;;4947767;28;20512;-66
2022/10/01 08:03:24;;;;;;;9.93;4.50;;;21.60;66.30;;;;;;4950639;28;21082;-72
2022/10/01 08:05:53;;;;;;;6.30;3.73;;;21.60;66.00;;;;;;4950671;28;20481;-71
2022/10/01 08:08:21;;;;;;;9.77;3.87;;;21.60;65.90;;;;;;4944279;28;20464;-71
2022/10/01 08:10:49;;;;;;;16.67;5.40;;;21.70;65.90;;;;;;4946147;29;20567;-72
2022/10/01 08:13:19;;;;;;;6.20;3.30;;;21.60;65.90;;;;;;4944670;28;20467;-75
2022/10/01 08:15:49;;;;;;;9.07;4.10;;;21.60;65.80;;;;;;4948510;28;21519;-71
2022/10/01 08:18:17;;;;;;;6.50;4.13;;;21.60;65.60;;;;;;4951154;28;20584;-70
2022/10/01 08:20:47;;;;;;;6.20;3.30;;;21.60;65.40;;;;;;4950885;28;20460;-69
2022/10/01 08:23:16;;;;;;;5.57;3.67;;;21.60;65.40;;;;;;4951730;28;20468;-69
2022/10/01 08:25:46;;;;;;;4.70;3.97;;;21.60;65.50;;;;;;4941961;29;20460;-69
2022/10/01 08:28:15;;;;;;;6.30;3.90;;;21.60;65.50;;;;;;4950896;28;20761;-68
2022/10/01 08:30:43;;;;;;;2.93;2.70;;;21.60;65.40;;;;;;4950982;29;20442;-68
2022/10/01 08:33:13;;;;;;;8.40;3.30;;;21.60;65.30;;;;;;4946262;29;20827;-68
2022/10/01 08:35:42;;;;;;;6.50;3.30;;;21.60;65.30;;;;;;4949558;28;20457;-68
2022/10/01 08:38:14;;;;;;;4.13;3.70;;;21.60;65.30;;;;;;4944877;29;20540;-71
2022/10/01 08:40:46;;;;;;;4.97;2.90;;;21.60;65.40;;;;;;4948215;29;20467;-68
2022/10/01 08:43:28;;;;;;;10.57;3.43;;;21.60;65.20;;;;;;4951548;28;20460;-70
2022/10/01 08:46:00;;;;;;;5.97;3.47;;;21.50;65.40;;;;;;4947091;29;20935;-69
2022/10/01 08:48:44;;;;;;;3.67;3.00;;;21.50;65.40;;;;;;4950819;28;20453;-69
2022/10/01 08:51:23;;;;;;;4.47;2.80;;;21.50;65.40;;;;;;4952590;28;20453;-69
2022/10/01 08:53:57;;;;;;;6.13;2.87;;;21.50;65.40;;;;;;4940760;29;20467;-70
2022/10/01 08:56:30;;;;;;;4.97;2.87;;;21.50;65.40;;;;;;4952280;28;20448;-68
2022/10/01 08:59:02;;;;;;;3.87;3.50;;;21.40;65.30;;;;;;4941712;29;20451;-69
2022/10/01 09:01:31;;;;;;;6.27;3.20;;;21.40;65.50;;;;;;4939705;29;20481;-70
2022/10/01 09:04:00;;;;;;;3.57;3.27;;;21.40;65.40;;;;;;4944208;29;20489;-69
2022/10/01 09:06:29;;;;;;;5.53;3.17;;;21.40;65.40;;;;;;4942431;28;20538;-69
2022/10/01 09:09:20;;;;;;;3.87;3.30;;;21.40;65.40;;;;;;4936088;28;20447;-70
2022/10/01 09:12:02;;;;;;;4.13;3.20;;;21.40;65.40;;;;;;4943275;29;20455;-69
2022/10/01 09:14:48;;;;;;;2.93;2.73;;;21.40;65.50;;;;;;4946684;28;20460;-69
2022/10/01 09:17:28;;;;;;;3.57;3.07;;;21.40;65.40;;;;;;4950122;28;20469;-69
2022/10/01 09:20:05;;;;;;;6.53;2.90;;;21.40;65.40;;;;;;4950432;28;20475;-69
2022/10/01 09:22:39;;;;;;;4.73;2.70;;;21.40;65.40;;;;;;4951904;28;20490;-69
2022/10/01 09:25:21;;;;;;;2.87;2.67;;;21.30;65.40;;;;;;4932613;29;20434;-70
2022/10/01 09:27:51;;;;;;;4.73;2.13;;;21.40;65.40;;;;;;4949481;29;20464;-70
2022/10/01 09:30:22;;;;;;;3.80;3.07;;;21.40;65.40;;;;;;4942683;29;20525;-69
2022/10/01 09:32:55;;;;;;;4.23;3.37;;;21.30;65.40;;;;;;4946223;29;20464;-69
2022/10/01 09:35:40;;;;;;;2.77;2.47;;;21.30;65.40;;;;;;4941197;29;20448;-71
2022/10/01 09:38:16;;;;;;;3.40;3.10;;;21.40;65.40;;;;;;4955656;29;20696;-69
2022/10/01 09:40:53;;;;;;;3.37;2.83;;;21.30;65.30;;;;;;4954615;28;20456;-69
2022/10/01 09:43:23;;;;;;;2.73;2.53;;;21.30;65.30;;;;;;4955590;28;20478;-69
2022/10/01 09:45:52;;;;;;;3.43;3.10;;;21.30;65.30;;;;;;4953921;28;20441;-71
2022/10/01 09:48:28;;;;;;;3.10;2.27;;;21.30;65.30;;;;;;4956155;28;20457;-68
2022/10/01 09:51:01;;;;;;;4.20;3.10;;;21.30;65.40;;;;;;4954888;28;20447;-70
2022/10/01 09:53:35;;;;;;;6.33;3.50;;;21.30;65.30;;;;;;4948548;29;21095;-69
2022/10/01 09:56:14;;;;;;;5.37;2.80;;;21.30;65.30;;;;;;4950143;28;20491;-69
2022/10/01 09:58:47;;;;;;;2.80;2.60;;;21.30;65.30;;;;;;4954311;29;20450;-69
2022/10/01 10:01:22;;;;;;;3.93;2.80;;;21.30;65.30;;;;;;4956321;28;20433;-70
2022/10/01 10:03:55;;;;;;;2.53;2.33;;;21.30;65.20;;;;;;4956750;28;20479;-68
2022/10/01 10:06:30;;;;;;;4.07;2.30;;;21.30;65.30;;;;;;4956542;28;20930;-69
2022/10/01 10:09:00;;;;;;;3.77;2.47;;;21.30;65.30;;;;;;4940142;28;20799;-68
2022/10/01 10:11:31;;;;;;;3.70;2.10;;;21.30;65.30;;;;;;4938449;29;20457;-69
2022/10/01 10:14:02;;;;;;;2.93;2.63;;;21.30;65.30;;;;;;4956163;28;20425;-68
2022/10/01 10:16:33;;;;;;;3.50;3.20;;;21.30;65.20;;;;;;4956205;28;20424;-69
2022/10/01 10:19:09;;;;;;;4.30;2.83;;;21.30;65.30;;;;;;4953044;28;20546;-70
2022/10/01 10:21:38;;;;;;;2.80;2.40;;;21.30;65.30;;;;;;4945715;28;20507;-68
2022/10/01 10:24:21;;;;;;;4.03;2.73;;;21.30;65.30;;;;;;4936281;29;20461;-69
2022/10/01 10:26:56;;;;;;;2.23;2.03;;;21.30;65.30;;;;;;4936850;29;20426;-69
2022/10/01 10:29:30;;;;;;;2.80;2.13;;;21.30;65.40;;;;;;4936986;29;20420;-68
2022/10/01 10:31:59;;;;;;;4.80;3.23;;;21.30;65.30;;;;;;4936809;29;21059;-70
2022/10/01 10:34:32;;;;;;;2.73;2.50;;;21.30;65.40;;;;;;4950370;29;20960;-68
2022/10/01 10:37:04;;;;;;;3.77;2.43;;;21.30;65.30;;;;;;4949248;28;20465;-69
2022/10/01 10:39:35;;;;;;;2.83;2.63;;;21.30;65.30;;;;;;4955480;28;20443;-69
2022/10/01 10:42:07;;;;;;;3.47;2.47;;;21.30;65.30;;;;;;4955070;28;20467;-69
2022/10/01 10:44:38;;;;;;;2.83;2.37;;;21.30;65.30;;;;;;4955891;28;20517;-69
2022/10/01 10:47:09;;;;;;;4.10;2.50;;;21.30;65.20;;;;;;4955513;28;20433;-69
2022/10/01 10:49:44;;;;;;;3.80;2.50;;;21.30;65.20;;;;;;4955573;28;20455;-69
2022/10/01 10:52:31;;;;;;;3.40;2.00;;;21.30;65.20;;;;;;4936614;29;20441;-70
2022/10/01 10:55:00;;;;;;;3.70;2.80;;;21.20;65.20;;;;;;4940604;29;20464;-69
2022/10/01 10:57:32;;;;;;;2.90;2.37;;;21.30;65.20;;;;;;4955274;28;20437;-69
2022/10/01 11:00:05;;;;;;;2.60;2.40;;;21.30;65.20;;;;;;4950468;29;20462;-70
2022/10/01 11:02:33;;;;;;;2.63;2.40;;;21.30;65.20;;;;;;4952760;28;20813;-69
2022/10/01 11:05:05;;;;;;;3.47;1.83;;;21.30;65.20;;;;;;4950268;29;20961;-70
2022/10/01 11:07:33;;;;;;;2.80;2.30;;;21.20;65.30;;;;;;4936627;29;20466;-69
2022/10/01 11:10:23;;;;;;;2.33;2.23;;;21.20;65.30;;;;;;4934974;29;20438;-70
2022/10/01 11:13:17;;;;;;;3.20;2.73;;;21.20;65.30;;;;;;4935791;29;20477;-69
2022/10/01 11:15:57;;;;;;;2.30;2.20;;;21.20;65.30;;;;;;4935832;29;20893;-68
2022/10/01 11:18:42;;;;;;;5.07;2.83;;;21.20;65.30;;;;;;4936074;29;20472;-69
2022/10/01 11:21:22;;;;;;;2.70;2.50;;;21.20;65.20;;;;;;4936513;29;20448;-70
2022/10/01 11:24:08;;;;;;;2.50;2.30;;;21.20;65.20;;;;;;4952398;29;20476;-69
2022/10/01 11:26:44;;;;;;;2.33;2.13;;;21.20;65.20;;;;;;4935807;28;21272;-69
2022/10/01 11:29:26;;;;;;;3.00;2.57;;;21.20;65.20;;;;;;4935977;29;20472;-69
2022/10/01 11:32:02;;;;;;;2.30;2.10;;;21.20;65.20;;;;;;4935490;29;20464;-69
2022/10/01 11:34:56;;;;;;;2.07;1.97;;;21.20;65.20;;;;;;4950206;29;20437;-69
2022/10/01 11:37:42;;;;;;;2.93;2.57;;;21.20;65.20;;;;;;4948215;28;20515;-69
2022/10/01 11:40:20;;;;;;;2.10;1.63;;;21.20;65.20;;;;;;4953163;28;20462;-69
2022/10/01 11:42:49;;;;;;;2.07;1.97;;;21.20;65.10;;;;;;4946867;28;20843;-68
2022/10/01 11:45:28;;;;;;;2.20;2.00;;;21.20;65.10;;;;;;4935503;29;20430;-68
2022/10/01 11:48:01;;;;;;;2.00;1.90;;;21.20;65.10;;;;;;4933627;29;20462;-68
2022/10/01 11:50:32;;;;;;;2.53;1.80;;;21.20;65.10;;;;;;4935088;29;20425;-69
2022/10/01 11:53:12;;;;;;;3.30;2.17;;;21.20;65.10;;;;;;4941855;29;20458;-69
2022/10/01 11:58:53;;;;;;;2.37;2.17;;;21.20;65.10;;;;;;4935497;29;20471;-68
2022/10/01 12:01:39;;;;;;;2.30;2.10;;;21.20;65.10;;;;;;4934934;29;20446;-69
2022/10/01 12:04:27;;;;;;;2.03;1.93;;;21.20;65.10;;;;;;4945485;29;20995;-69
2022/10/01 12:07:02;;;;;;;1.97;1.87;;;21.20;65.10;;;;;;4954321;28;20422;-69
2022/10/01 12:09:39;;;;;;;2.50;2.13;;;21.20;65.10;;;;;;4954303;28;20464;-69
2022/10/01 12:12:14;;;;;;;1.93;1.83;;;21.20;65.10;;;;;;4954572;28;20428;-68
2022/10/01 12:14:46;;;;;;;1.80;1.70;;;21.20;65.10;;;;;;4954019;28;20794;-71
2022/10/01 12:17:23;;;;;;;3.33;2.30;;;21.20;64.90;;;;;;4944104;28;20451;-69
2022/10/01 12:19:55;;;;;;;2.10;2.00;;;21.20;64.90;;;;;;4949911;28;20513;-71
2022/10/01 12:22:27;;;;;;;2.50;2.30;;;21.20;65.00;;;;;;4952788;29;20448;-69
2022/10/01 12:24:55;;;;;;;2.60;2.40;;;21.20;65.00;;;;;;4953415;28;20779;-68
2022/10/01 12:27:35;;;;;;;2.43;2.23;;;21.20;65.00;;;;;;4954908;28;20430;-71
2022/10/01 12:30:06;;;;;;;1.47;1.37;;;21.20;65.00;;;;;;4954221;28;20446;-69
2022/10/01 12:32:47;;;;;;;2.97;2.67;;;21.20;65.00;;;;;;4936863;28;20451;-69
2022/10/01 12:35:38;;;;;;;2.17;1.97;;;21.20;65.00;;;;;;4935081;29;20474;-70
2022/10/01 12:38:15;;;;;;;1.70;1.60;;;21.20;65.00;;;;;;4934939;29;20894;-69
2022/10/01 12:40:49;;;;;;;2.73;2.20;;;21.20;65.00;;;;;;4944786;29;20460;-69
2022/10/01 12:43:38;;;;;;;2.23;2.13;;;21.20;65.00;;;;;;4954407;28;20469;-68
2022/10/01 12:46:15;;;;;;;2.23;2.00;;;21.20;65.00;;;;;;4954138;28;20444;-69
2022/10/01 12:48:51;;;;;;;2.80;2.13;;;21.20;65.00;;;;;;4953806;28;20440;-69
2022/10/01 12:51:38;;;;;;;4.00;1.97;;;21.20;64.90;;;;;;4949683;28;20437;-69
2022/10/01 12:54:22;;;;;;;2.37;2.17;;;21.20;65.00;;;;;;4949893;29;20464;-69
2022/10/01 12:56:59;;;;;;;2.33;2.23;;;21.20;65.00;;;;;;4953142;28;20449;-69
2022/10/01 12:59:40;;;;;;;2.23;2.10;;;21.20;65.00;;;;;;4948506;28;20448;-69
2022/10/01 13:02:30;;;;;;;2.00;1.90;;;21.20;65.00;;;;;;4950900;28;20464;-68
2022/10/01 13:05:23;;;;;;;2.37;2.00;;;21.20;64.90;;;;;;4952170;29;20481;-68
2022/10/01 13:08:00;;;;;;;1.97;1.70;;;21.20;64.90;;;;;;4950584;28;20456;-69
2022/10/01 13:10:47;;;;;;;1.90;1.80;;;21.20;64.90;;;;;;4952476;28;20463;-68
2022/10/01 13:13:21;;;;;;;2.60;2.40;;;21.20;65.00;;;;;;4956943;29;20511;-68
2022/10/01 13:15:54;;;;;;;2.20;2.10;;;21.20;65.00;;;;;;4942755;28;20952;-68